Time,TemperatureF,DewpointF,PressureIn,WindDirection,WindDirectionDegrees,WindSpeedMPH,WindSpeedGustMPH,Humidity,HourlyPrecipIn,Conditions,Clouds,dailyrainin,SoftwareType,DateUTC
2013-06-20 11:47:00,91.8,71.1,29.72,SSW,202,4.2,-999.0,51,-99.99,,,0.00,Acu-Link.com,2013-06-20 16:47:00,
2013-06-20 12:03:00,92.1,70.7,29.72,SW,225,6.3,-999.0,50,-99.99,,,0.00,Acu-Link.com,2013-06-20 17:03:00,
2013-06-20 12:23:00,91.9,71.1,29.71,SSW,202,2.7,-999.0,51,-99.99,,,0.00,Acu-Link.com,2013-06-20 17:23:00,
2013-06-20 12:38:00,93.7,72.2,29.71,SW,225,0.0,-999.0,50,-99.99,,,0.00,Acu-Link.com,2013-06-20 17:38:00,
2013-06-20 12:54:00,94.6,71.8,29.71,SW,225,4.7,-999.0,48,-99.99,,,0.00,Acu-Link.com,2013-06-20 17:54:00,
2013-06-20 13:09:00,95.5,72.6,29.70,South,180,8.3,-999.0,48,-99.99,,,0.00,Acu-Link.com,2013-06-20 18:09:00,
2013-06-20 13:24:00,94.6,73.0,29.69,South,180,1.1,-999.0,50,-99.99,,,0.00,Acu-Link.com,2013-06-20 18:24:00,
2013-06-20 13:39:00,95.7,72.8,29.69,SE,135,8.9,-999.0,48,-99.99,,,0.00,Acu-Link.com,2013-06-20 18:39:00,
2013-06-20 13:54:00,95.9,73.0,29.68,South,180,7.3,-999.0,48,-99.99,,,0.00,Acu-Link.com,2013-06-20 18:54:00,
2013-06-20 14:10:00,95.4,73.2,29.68,South,180,5.3,-999.0,49,-99.99,,,0.00,Acu-Link.com,2013-06-20 19:10:00,
2013-06-20 14:25:00,95.7,72.2,29.67,SSE,157,9.9,-999.0,47,-99.99,,,0.00,Acu-Link.com,2013-06-20 19:25:00,
2013-06-20 14:44:00,97.3,73.6,29.66,South,180,3.7,-999.0,47,-99.99,,,0.00,Acu-Link.com,2013-06-20 19:44:00,
2013-06-20 15:00:00,97.0,73.4,29.65,SE,135,6.8,-999.0,47,-99.99,,,0.00,Acu-Link.com,2013-06-20 20:00:00,
2013-06-20 15:27:00,96.3,73.4,29.65,South,180,4.7,-999.0,48,-99.99,,,0.00,Acu-Link.com,2013-06-20 20:27:00,
2013-06-20 18:07:00,98.1,69.6,29.61,SW,225,4.2,-999.0,40,-99.99,,,0.00,Acu-Link.com,2013-06-20 23:07:00,
2013-06-20 18:27:00,96.4,68.1,29.60,SSE,157,6.3,-999.0,40,-99.99,,,0.00,Acu-Link.com,2013-06-20 23:27:00,
2013-06-20 18:43:00,94.6,67.2,29.60,South,180,4.7,-999.0,41,-99.99,,,0.00,Acu-Link.com,2013-06-20 23:43:00,
2013-06-20 18:58:00,94.1,68.1,29.61,SW,225,4.7,-999.0,43,-99.99,,,0.00,Acu-Link.com,2013-06-20 23:58:00,
2013-06-20 19:13:00,92.8,68.3,29.60,ESE,112,3.7,-999.0,45,-99.99,,,0.00,Acu-Link.com,2013-06-21 00:13:00,
2013-06-20 19:29:00,92.7,68.8,29.61,SSE,157,0.0,-999.0,46,-99.99,,,0.00,Acu-Link.com,2013-06-21 00:29:00,
2013-06-20 19:44:00,92.5,69.9,29.61,West,270,0.0,-999.0,48,-99.99,,,0.00,Acu-Link.com,2013-06-21 00:44:00,
2013-06-20 20:00:00,92.1,69.5,29.61,SE,135,0.0,-999.0,48,-99.99,,,0.00,Acu-Link.com,2013-06-21 01:00:00,
2013-06-20 20:15:00,91.2,69.3,29.61,SSE,157,1.7,-999.0,49,-99.99,,,0.00,Acu-Link.com,2013-06-21 01:15:00,
2013-06-20 20:31:00,90.1,69.5,29.61,SSE,157,2.2,-999.0,51,-99.99,,,0.00,Acu-Link.com,2013-06-21 01:31:00,
2013-06-20 20:46:00,89.2,69.2,29.62,SSE,157,2.7,-999.0,52,-99.99,,,0.00,Acu-Link.com,2013-06-21 01:46:00,
2013-06-20 21:01:00,88.7,68.8,29.63,South,180,3.7,-999.0,52,-99.99,,,0.00,Acu-Link.com,2013-06-21 02:01:00,
2013-06-20 21:17:00,88.5,68.6,29.63,SSE,157,1.1,-999.0,52,-99.99,,,0.00,Acu-Link.com,2013-06-21 02:17:00,
2013-06-20 21:32:00,88.0,68.7,29.63,South,180,2.2,-999.0,53,-99.99,,,0.00,Acu-Link.com,2013-06-21 02:32:00,
2013-06-20 21:47:00,87.3,68.6,29.64,SSE,157,0.0,-999.0,54,-99.99,,,0.00,Acu-Link.com,2013-06-21 02:47:00,
2013-06-20 22:02:00,86.9,68.8,29.65,SSE,157,2.2,-999.0,55,-99.99,,,0.00,Acu-Link.com,2013-06-21 03:02:00,
2013-06-20 22:17:00,86.7,68.6,29.66,SSE,157,3.2,-999.0,55,-99.99,,,0.00,Acu-Link.com,2013-06-21 03:17:00,
2013-06-20 22:33:00,86.7,68.6,29.67,West,270,0.0,-999.0,55,-99.99,,,0.00,Acu-Link.com,2013-06-21 03:33:00,
2013-06-20 22:48:00,86.5,68.4,29.67,SSE,157,3.7,-999.0,55,-99.99,,,0.00,Acu-Link.com,2013-06-21 03:48:00,
2013-06-20 23:03:00,86.4,68.3,29.67,SSE,157,3.7,-999.0,55,-99.99,,,0.00,Acu-Link.com,2013-06-21 04:03:00,
2013-06-20 23:18:00,86.4,68.3,29.67,South,180,6.8,-999.0,55,-99.99,,,0.00,Acu-Link.com,2013-06-21 04:18:00,
2013-06-20 23:33:00,86.2,68.1,29.67,South,180,5.8,-999.0,55,-99.99,,,0.00,Acu-Link.com,2013-06-21 04:33:00,
2013-06-20 23:48:00,86.0,67.9,29.67,South,180,4.7,-999.0,55,-99.99,,,0.00,Acu-Link.com,2013-06-21 04:48:00,